Time;durP1;ratioP1;P1;durP2;ratioP2;P2;SDS_P1;SDS_P2;PMS_P1;PMS_P2;Temp;Humidity;BMP_temperature;BMP_pressure;BME280_temperature;BME280_humidity;BME280_pressure;Samples;Min_cycle;Max_cycle;Signal;HPM_P1;HPM_P2
2021/11/29 00:00:36;;;;;;;4.90;4.50;;;6.50;64.80;;;;;;5045442;28;20079;-81
2021/11/29 00:03:07;;;;;;;5.32;4.80;;;6.40;64.70;;;;;;5060525;28;20026;-77
2021/11/29 00:05:33;;;;;;;5.30;4.80;;;6.40;64.60;;;;;;5029551;28;20500;-81
2021/11/29 00:08:02;;;;;;;5.28;4.78;;;6.40;64.60;;;;;;5029593;28;20025;-75
2021/11/29 00:10:29;;;;;;;5.00;4.50;;;6.40;64.70;;;;;;5049461;28;20384;-79
2021/11/29 00:12:55;;;;;;;5.70;5.20;;;6.40;64.70;;;;;;5049958;28;20358;-83
2021/11/29 00:15:21;;;;;;;5.65;5.25;;;6.30;64.50;;;;;;5049162;28;20037;-81
2021/11/29 00:17:48;;;;;;;5.18;4.68;;;6.30;64.50;;;;;;5040256;28;20043;-83
2021/11/29 00:20:15;;;;;;;5.55;5.05;;;6.30;64.60;;;;;;5047901;28;20343;-77
2021/11/29 00:22:42;;;;;;;5.63;5.13;;;6.30;64.60;;;;;;5048040;28;20025;-75
2021/11/29 00:25:09;;;;;;;4.82;4.38;;;6.30;64.60;;;;;;5048467;28;20112;-78
2021/11/29 00:27:37;;;;;;;5.18;4.75;;;6.30;64.60;;;;;;5048252;28;20064;-82
2021/11/29 00:30:05;;;;;;;4.65;4.25;;;6.30;64.70;;;;;;5049983;28;20033;-80
2021/11/29 00:32:31;;;;;;;5.30;4.90;;;6.30;64.70;;;;;;5049550;28;20134;-75
2021/11/29 00:34:57;;;;;;;4.97;4.55;;;6.30;64.70;;;;;;5064687;28;20461;-76
2021/11/29 00:37:24;;;;;;;4.57;4.18;;;6.30;64.70;;;;;;5049192;28;20441;-79
2021/11/29 00:39:52;;;;;;;4.90;4.50;;;6.30;64.70;;;;;;5049405;28;20029;-76
2021/11/29 00:42:18;;;;;;;4.55;4.18;;;6.30;64.60;;;;;;5048812;28;20124;-80
2021/11/29 00:44:43;;;;;;;4.43;4.03;;;6.30;64.60;;;;;;5049137;28;20044;-78
2021/11/29 00:47:10;;;;;;;4.85;4.45;;;6.20;64.40;;;;;;5048823;28;20404;-85
2021/11/29 00:49:36;;;;;;;4.47;4.07;;;6.20;64.40;;;;;;5040253;28;20036;-76
2021/11/29 00:52:02;;;;;;;4.30;3.90;;;6.20;65.00;;;;;;5048858;28;20029;-77
2021/11/29 00:54:28;;;;;;;5.15;4.65;;;6.20;64.40;;;;;;5048393;28;20116;-75
2021/11/29 00:56:54;;;;;;;4.68;4.30;;;6.20;64.40;;;;;;5047744;28;20098;-80
2021/11/29 00:59:20;;;;;;;4.72;4.28;;;6.20;64.50;;;;;;5046916;28;20245;-77
2021/11/29 01:01:46;;;;;;;4.78;4.35;;;6.10;64.30;;;;;;5063975;28;20120;-77
2021/11/29 01:04:12;;;;;;;4.63;4.22;;;6.10;64.30;;;;;;5048159;28;20035;-81
2021/11/29 01:06:38;;;;;;;4.55;4.15;;;6.10;64.30;;;;;;5048928;28;20037;-78
2021/11/29 01:09:05;;;;;;;4.30;3.90;;;6.10;64.30;;;;;;5048494;28;20033;-78
2021/11/29 01:11:31;;;;;;;4.93;4.47;;;6.00;64.20;;;;;;5047359;28;20036;-77
2021/11/29 01:13:57;;;;;;;5.20;4.47;;;6.00;64.20;;;;;;5046664;28;20049;-76
2021/11/29 01:16:23;;;;;;;4.15;3.75;;;6.00;64.20;;;;;;5048307;28;20343;-77
2021/11/29 01:18:49;;;;;;;4.93;4.38;;;5.90;64.00;;;;;;5039364;28;20446;-80
2021/11/29 01:21:17;;;;;;;4.20;3.83;;;5.90;64.00;;;;;;5047245;28;20033;-75
2021/11/29 01:23:44;;;;;;;3.65;3.35;;;5.80;63.90;;;;;;5026914;28;20044;-82
2021/11/29 01:26:11;;;;;;;4.38;3.97;;;5.80;63.90;;;;;;5028024;28;20531;-81
2021/11/29 01:28:37;;;;;;;4.63;4.22;;;5.80;64.00;;;;;;5042902;28;20072;-74
2021/11/29 01:31:04;;;;;;;4.60;4.20;;;5.70;63.80;;;;;;5046164;28;20116;-79
2021/11/29 01:33:30;;;;;;;3.97;3.58;;;5.70;63.80;;;;;;5048078;28;20033;-77
2021/11/29 01:35:56;;;;;;;4.30;3.90;;;5.70;63.90;;;;;;5047795;28;20064;-79
2021/11/29 01:38:22;;;;;;;4.78;3.78;;;5.60;63.80;;;;;;5047983;28;20064;-85
2021/11/29 01:40:49;;;;;;;4.32;3.92;;;5.60;63.80;;;;;;5048158;28;20064;-84
2021/11/29 01:43:18;;;;;;;4.10;3.80;;;5.50;63.60;;;;;;5048176;28;20476;-74
2021/11/29 01:45:47;;;;;;;4.55;4.15;;;5.50;63.60;;;;;;5047947;28;20118;-74
2021/11/29 01:48:13;;;;;;;4.07;3.67;;;5.40;63.50;;;;;;5046700;28;20480;-75
2021/11/29 01:50:45;;;;;;;4.15;3.75;;;5.40;63.50;;;;;;5037738;28;20582;-79
2021/11/29 01:53:12;;;;;;;4.45;4.00;;;5.40;63.60;;;;;;5048425;28;20055;-78
2021/11/29 01:55:40;;;;;;;4.18;3.78;;;5.30;63.50;;;;;;5047016;28;20047;-83
2021/11/29 01:58:06;;;;;;;4.47;4.07;;;5.30;63.50;;;;;;5047567;28;20021;-75
2021/11/29 02:00:37;;;;;;;4.25;3.85;;;5.30;63.60;;;;;;5047953;28;20029;-89
2021/11/29 02:03:03;;;;;;;4.65;4.18;;;5.20;63.50;;;;;;5048736;28;20377;-82
2021/11/29 02:05:30;;;;;;;5.32;4.40;;;5.20;63.50;;;;;;5047189;28;20476;-87
2021/11/29 02:07:57;;;;;;;4.95;4.07;;;5.10;63.40;;;;;;5029873;28;20480;-85
2021/11/29 02:10:25;;;;;;;4.35;3.95;;;5.10;63.40;;;;;;5046162;28;20036;-86
2021/11/29 02:12:51;;;;;;;4.57;4.18;;;5.10;63.50;;;;;;5047269;28;20037;-81
2021/11/29 02:15:19;;;;;;;3.88;3.53;;;5.00;63.40;;;;;;5047538;28;20064;-86
2021/11/29 02:17:46;;;;;;;4.35;3.95;;;5.00;63.40;;;;;;5047992;28;20032;-85
2021/11/29 02:20:15;;;;;;;4.43;3.88;;;5.00;63.50;;;;;;5038797;28;20469;-78
2021/11/29 02:22:43;;;;;;;4.30;3.90;;;4.90;63.30;;;;;;5047494;28;20068;-80
2021/11/29 02:25:11;;;;;;;4.88;4.38;;;4.90;63.40;;;;;;5046342;28;20071;-79
2021/11/29 02:27:41;;;;;;;4.90;4.40;;;4.90;63.40;;;;;;5048357;28;20120;-79
2021/11/29 02:30:07;;;;;;;4.93;4.43;;;4.90;63.40;;;;;;5046293;28;20075;-88
2021/11/29 02:32:33;;;;;;;4.82;4.32;;;4.80;63.20;;;;;;5042271;28;20052;-83
2021/11/29 02:34:59;;;;;;;4.22;3.83;;;4.80;63.30;;;;;;5029454;28;20037;-85
2021/11/29 02:37:25;;;;;;;4.57;4.18;;;4.70;63.10;;;;;;5035472;28;20021;-84
2021/11/29 02:39:51;;;;;;;5.00;4.50;;;4.70;63.20;;;;;;5051985;28;20111;-74
2021/11/29 02:42:17;;;;;;;4.13;3.70;;;4.70;63.20;;;;;;5049271;28;20146;-75
2021/11/29 02:44:45;;;;;;;4.43;4.03;;;4.70;63.30;;;;;;5049256;28;20192;-79
2021/11/29 02:47:11;;;;;;;4.82;4.00;;;4.60;63.20;;;;;;5050435;28;20416;-86
2021/11/29 02:49:37;;;;;;;4.78;4.30;;;4.60;63.20;;;;;;5044431;28;20033;-84
2021/11/29 02:52:07;;;;;;;4.28;3.88;;;4.60;63.20;;;;;;5054513;28;20031;-90
2021/11/29 02:54:35;;;;;;;4.90;4.20;;;4.50;63.10;;;;;;5053497;28;20037;-84
2021/11/29 02:57:04;;;;;;;4.35;3.95;;;4.50;63.10;;;;;;5053898;28;20496;-78
2021/11/29 02:59:32;;;;;;;5.25;4.75;;;4.40;62.90;;;;;;5050770;28;20128;-83
2021/11/29 03:02:01;;;;;;;5.40;4.85;;;4.40;63.00;;;;;;5051217;28;20086;-82
2021/11/29 03:04:29;;;;;;;4.63;4.03;;;4.40;63.00;;;;;;5050908;28;20029;-81
2021/11/29 03:06:56;;;;;;;4.95;4.53;;;4.30;62.90;;;;;;5050193;28;20115;-86
2021/11/29 03:09:22;;;;;;;6.05;4.30;;;4.30;62.90;;;;;;5049373;28;20060;-82
2021/11/29 03:11:48;;;;;;;5.25;4.45;;;4.30;63.00;;;;;;5050008;28;20117;-80
2021/11/29 03:14:16;;;;;;;5.05;4.55;;;4.30;63.00;;;;;;5050928;28;20029;-80
2021/11/29 03:16:43;;;;;;;5.65;4.13;;;4.30;63.60;;;;;;5049407;28;20037;-82
2021/11/29 03:19:09;;;;;;;5.43;4.93;;;4.30;63.10;;;;;;5050876;28;20031;-80
2021/11/29 03:21:35;;;;;;;5.60;4.13;;;4.20;62.90;;;;;;5042204;28;20059;-77
2021/11/29 03:24:05;;;;;;;4.75;4.25;;;4.20;62.90;;;;;;5050894;28;20029;-77
2021/11/29 03:26:32;;;;;;;4.50;4.10;;;4.20;62.90;;;;;;5051119;28;20056;-83
2021/11/29 03:29:02;;;;;;;4.28;3.85;;;4.20;62.90;;;;;;5050767;28;20040;-84
2021/11/29 03:31:32;;;;;;;5.13;4.57;;;4.10;62.80;;;;;;5049710;28;20400;-82
2021/11/29 03:34:04;;;;;;;5.13;4.63;;;4.10;62.80;;;;;;5049859;28;20062;-83
2021/11/29 03:36:32;;;;;;;5.13;4.63;;;4.10;62.80;;;;;;5050852;28;20044;-85
2021/11/29 03:39:01;;;;;;;5.35;4.60;;;4.00;62.70;;;;;;5053769;28;20031;-81
2021/11/29 03:41:27;;;;;;;5.25;4.75;;;4.00;62.70;;;;;;5055199;28;20032;-83
2021/11/29 03:43:53;;;;;;;5.25;4.55;;;4.00;62.80;;;;;;5055362;28;20100;-86
2021/11/29 03:46:19;;;;;;;4.63;3.97;;;3.90;62.60;;;;;;5054144;28;20057;-80
2021/11/29 03:48:46;;;;;;;4.68;4.18;;;3.90;62.60;;;;;;5054978;28;20083;-84
2021/11/29 03:51:12;;;;;;;5.07;4.57;;;3.90;62.60;;;;;;5046351;28;20029;-82
2021/11/29 03:53:38;;;;;;;5.68;4.50;;;3.90;62.70;;;;;;5070317;28;20120;-79
2021/11/29 03:56:05;;;;;;;5.65;4.82;;;3.80;62.50;;;;;;5070049;28;20040;-81
2021/11/29 03:58:31;;;;;;;4.63;4.22;;;3.80;62.60;;;;;;5037466;28;20464;-82
2021/11/29 04:00:57;;;;;;;5.05;4.25;;;3.80;62.60;;;;;;5070047;28;20033;-80
2021/11/29 04:03:23;;;;;;;6.43;5.00;;;3.80;62.70;;;;;;5055498;28;20025;-74
2021/11/29 04:05:50;;;;;;;5.90;4.93;;;3.80;62.70;;;;;;5054809;28;20037;-79
2021/11/29 04:08:16;;;;;;;5.80;5.10;;;3.70;62.60;;;;;;5054678;28;20120;-77
2021/11/29 04:10:42;;;;;;;5.60;5.00;;;3.70;62.60;;;;;;5054815;28;20294;-76
2021/11/29 04:13:08;;;;;;;5.40;4.57;;;3.70;62.60;;;;;;5070013;28;20029;-75
2021/11/29 04:15:34;;;;;;;5.32;4.82;;;3.70;62.70;;;;;;5054241;28;20086;-78
2021/11/29 04:18:01;;;;;;;6.00;4.90;;;3.70;62.70;;;;;;5054445;28;20032;-77
2021/11/29 04:20:27;;;;;;;4.75;4.25;;;3.70;62.70;;;;;;5053284;28;20029;-85
2021/11/29 04:22:53;;;;;;;5.38;4.88;;;3.70;62.70;;;;;;5045488;28;20040;-77
2021/11/29 04:25:23;;;;;;;7.30;5.20;;;3.70;62.70;;;;;;5054091;28;20120;-75
2021/11/29 04:27:50;;;;;;;6.68;4.93;;;3.70;62.80;;;;;;5054219;28;20060;-79
2021/11/29 04:30:20;;;;;;;6.43;5.43;;;3.60;62.60;;;;;;5057370;28;20036;-73
2021/11/29 04:32:48;;;;;;;4.63;4.20;;;3.60;62.70;;;;;;5055435;28;20053;-77
2021/11/29 04:35:15;;;;;;;5.85;5.25;;;3.60;62.70;;;;;;5055322;28;20048;-77
2021/11/29 04:37:42;;;;;;;6.88;5.43;;;3.60;62.80;;;;;;5055564;28;20033;-93
2021/11/29 04:40:09;;;;;;;5.10;4.50;;;3.60;62.80;;;;;;5056359;28;20522;-81
2021/11/29 04:42:35;;;;;;;6.15;5.07;;;3.60;62.80;;;;;;5055404;28;20025;-75
2021/11/29 04:45:02;;;;;;;5.78;4.80;;;3.60;62.80;;;;;;5054017;28;20025;-78
2021/11/29 04:47:28;;;;;;;5.03;4.53;;;3.60;62.80;;;;;;5054194;28;20025;-83
2021/11/29 04:49:54;;;;;;;6.25;4.38;;;3.60;62.80;;;;;;5053162;28;20025;-76
2021/11/29 04:52:20;;;;;;;5.88;5.05;;;3.60;62.90;;;;;;5043506;28;20057;-86
2021/11/29 04:54:46;;;;;;;5.18;4.68;;;3.60;62.90;;;;;;5053854;28;20480;-79
2021/11/29 04:57:12;;;;;;;5.43;4.93;;;3.60;62.90;;;;;;5052631;28;20033;-81
2021/11/29 04:59:39;;;;;;;5.50;4.70;;;3.60;62.90;;;;;;5053681;28;20098;-85
2021/11/29 05:02:05;;;;;;;5.43;4.60;;;3.60;62.90;;;;;;5053187;28;20036;-74
2021/11/29 05:04:31;;;;;;;5.05;4.55;;;3.60;62.90;;;;;;5052789;28;20025;-83
2021/11/29 05:06:57;;;;;;;5.75;5.00;;;3.60;62.90;;;;;;5053406;28;20404;-81
2021/11/29 05:09:24;;;;;;;6.05;5.43;;;3.60;62.90;;;;;;5053099;28;20032;-79
2021/11/29 05:11:50;;;;;;;5.07;4.57;;;3.60;62.90;;;;;;5053269;28;20040;-82
2021/11/29 05:14:16;;;;;;;6.45;5.07;;;3.60;62.90;;;;;;5053574;28;20102;-78
2021/11/29 05:16:43;;;;;;;5.18;4.65;;;3.60;62.90;;;;;;5052975;28;20029;-79
2021/11/29 05:19:10;;;;;;;6.10;5.00;;;3.60;62.90;;;;;;5053364;28;20031;-82
2021/11/29 05:21:37;;;;;;;5.55;5.00;;;3.70;63.10;;;;;;5044288;28;20539;-76
2021/11/29 05:24:04;;;;;;;5.10;4.40;;;3.70;63.00;;;;;;5052999;28;20025;-78
2021/11/29 05:26:30;;;;;;;5.03;4.38;;;3.60;62.90;;;;;;5053938;28;20064;-78
2021/11/29 05:28:59;;;;;;;4.78;4.38;;;3.60;62.80;;;;;;5053337;28;20467;-78
2021/11/29 05:31:25;;;;;;;5.07;4.38;;;3.70;63.00;;;;;;5053051;28;20556;-82
2021/11/29 05:33:51;;;;;;;5.55;4.60;;;3.60;62.80;;;;;;5053099;28;20124;-76
2021/11/29 05:36:18;;;;;;;5.78;4.65;;;3.70;63.00;;;;;;5052350;28;20079;-83
2021/11/29 05:38:45;;;;;;;6.43;5.70;;;3.60;62.80;;;;;;5046570;28;20032;-78
2021/11/29 05:41:11;;;;;;;5.72;4.38;;;3.60;62.80;;;;;;5048251;28;20111;-79
2021/11/29 05:43:38;;;;;;;4.70;4.20;;;3.60;62.80;;;;;;5032880;28;20114;-82
2021/11/29 05:46:04;;;;;;;5.03;4.38;;;3.60;62.80;;;;;;5032123;28;20576;-78
2021/11/29 05:48:30;;;;;;;6.68;4.95;;;3.60;62.80;;;;;;5029956;28;20448;-76
2021/11/29 05:50:58;;;;;;;5.18;4.35;;;3.60;62.80;;;;;;5044573;28;20029;-75
2021/11/29 05:53:24;;;;;;;5.13;4.50;;;3.50;62.70;;;;;;5049514;28;20025;-75
2021/11/29 05:55:50;;;;;;;4.93;4.43;;;3.50;62.70;;;;;;5050093;28;20565;-77
2021/11/29 05:58:17;;;;;;;5.50;4.47;;;3.50;62.70;;;;;;5050859;28;20033;-85
2021/11/29 06:00:42;;;;;;;6.53;5.07;;;3.50;62.70;;;;;;5052685;28;20400;-88
2021/11/29 06:03:08;;;;;;;5.47;4.65;;;3.50;62.70;;;;;;5045110;28;20032;-93
2021/11/29 06:05:34;;;;;;;6.00;4.45;;;3.50;62.70;;;;;;5048026;28;20093;-75
2021/11/29 06:08:00;;;;;;;5.00;4.53;;;3.50;62.80;;;;;;5051950;28;20033;-75
2021/11/29 06:10:26;;;;;;;5.00;4.38;;;3.50;62.70;;;;;;5047309;28;20086;-77
2021/11/29 06:12:52;;;;;;;6.03;4.88;;;3.50;62.80;;;;;;5046037;28;20040;-80
2021/11/29 06:15:19;;;;;;;4.95;4.22;;;3.50;62.80;;;;;;5047853;28;20033;-78
2021/11/29 06:17:45;;;;;;;6.18;4.75;;;3.50;62.80;;;;;;5047614;28;20427;-75
2021/11/29 06:20:19;;;;;;;6.15;5.03;;;3.50;62.70;;;;;;5047014;28;20758;-76
2021/11/29 06:22:51;;;;;;;5.88;4.82;;;3.50;62.80;;;;;;5047326;28;20443;-76
2021/11/29 06:25:18;;;;;;;6.20;4.93;;;3.50;62.80;;;;;;5047301;28;20032;-79
2021/11/29 06:27:44;;;;;;;5.97;5.10;;;3.50;62.80;;;;;;5046786;28;20222;-75
2021/11/29 06:30:11;;;;;;;5.03;4.53;;;3.50;62.80;;;;;;5047283;28;20032;-80
2021/11/29 06:32:37;;;;;;;5.70;4.70;;;3.50;62.80;;;;;;5043960;28;20124;-79
2021/11/29 06:35:05;;;;;;;5.10;4.60;;;3.50;62.80;;;;;;5042107;28;20124;-75
2021/11/29 06:37:31;;;;;;;4.97;4.47;;;3.50;62.80;;;;;;5030206;28;20037;-80
2021/11/29 06:39:58;;;;;;;6.05;5.45;;;3.50;62.80;;;;;;5039415;28;20128;-77
2021/11/29 06:42:24;;;;;;;4.72;4.20;;;3.50;62.70;;;;;;5031272;28;20029;-75
2021/11/29 06:44:51;;;;;;;5.60;4.53;;;3.50;62.80;;;;;;5045909;28;20421;-74
2021/11/29 06:47:17;;;;;;;6.40;5.32;;;3.50;62.80;;;;;;5046410;28;20392;-75
2021/11/29 06:49:43;;;;;;;5.93;5.13;;;3.50;62.90;;;;;;5026271;28;20044;-74
2021/11/29 06:52:09;;;;;;;8.13;5.95;;;3.60;63.30;;;;;;5043498;28;20028;-74
2021/11/29 06:54:37;;;;;;;7.97;5.32;;;3.60;63.40;;;;;;5046385;28;20025;-77
2021/11/29 06:57:05;;;;;;;6.07;5.40;;;3.60;63.40;;;;;;5039141;28;20090;-75
2021/11/29 06:59:31;;;;;;;4.97;4.50;;;3.70;63.60;;;;;;5045955;28;20266;-81
2021/11/29 07:01:58;;;;;;;6.63;5.28;;;3.70;63.60;;;;;;5046289;28;20044;-80
2021/11/29 07:04:24;;;;;;;5.10;4.60;;;3.70;63.60;;;;;;5046117;28;20032;-76
2021/11/29 07:06:51;;;;;;;5.25;4.75;;;3.70;63.60;;;;;;5046959;28;20480;-75
2021/11/29 07:09:17;;;;;;;5.95;5.35;;;3.70;63.60;;;;;;5029629;28;20123;-76
2021/11/29 07:11:43;;;;;;;6.00;5.35;;;3.80;63.80;;;;;;5041031;28;20025;-78
2021/11/29 07:14:10;;;;;;;5.65;4.95;;;3.70;63.60;;;;;;5042024;28;20028;-78
2021/11/29 07:16:37;;;;;;;6.13;5.35;;;3.80;63.70;;;;;;5041386;28;20624;-75
2021/11/29 07:19:04;;;;;;;6.85;5.28;;;3.80;63.70;;;;;;5037204;28;20076;-77
2021/11/29 07:21:30;;;;;;;5.28;4.78;;;3.80;63.70;;;;;;5044915;28;20029;-74
2021/11/29 07:23:56;;;;;;;6.55;5.47;;;3.80;63.60;;;;;;5046341;28;20033;-77
2021/11/29 07:26:23;;;;;;;5.78;4.68;;;3.80;63.70;;;;;;5046431;28;20136;-78
2021/11/29 07:28:48;;;;;;;5.75;5.03;;;3.80;63.60;;;;;;5043945;28;20488;-76
2021/11/29 07:31:14;;;;;;;5.43;4.72;;;3.80;63.70;;;;;;5037756;28;20036;-82
2021/11/29 07:33:40;;;;;;;6.43;5.57;;;3.80;63.80;;;;;;5045019;28;20041;-75
2021/11/29 07:36:06;;;;;;;6.72;5.75;;;3.80;63.80;;;;;;5044330;28;20041;-74
2021/11/29 07:38:32;;;;;;;6.20;4.75;;;3.80;63.80;;;;;;5043617;28;20041;-75
2021/11/29 07:40:59;;;;;;;6.07;5.38;;;3.80;63.80;;;;;;5043753;28;20029;-76
2021/11/29 07:43:24;;;;;;;6.82;5.18;;;3.80;63.80;;;;;;5044327;28;20044;-74
2021/11/29 07:45:51;;;;;;;6.38;5.50;;;3.80;63.80;;;;;;5042819;28;20381;-74
2021/11/29 07:48:18;;;;;;;5.93;5.05;;;3.70;63.60;;;;;;5042957;28;20021;-76
2021/11/29 07:50:45;;;;;;;5.10;4.60;;;3.70;63.60;;;;;;5043531;28;20405;-76
2021/11/29 07:53:11;;;;;;;5.80;4.90;;;3.70;63.70;;;;;;5045065;28;20048;-76
2021/11/29 07:55:37;;;;;;;5.20;4.55;;;3.70;64.20;;;;;;5045983;28;20025;-78
2021/11/29 07:58:04;;;;;;;5.85;5.20;;;3.70;63.70;;;;;;5038935;28;20021;-80
2021/11/29 08:00:33;;;;;;;5.90;5.30;;;3.70;63.70;;;;;;5052011;28;20020;-75
2021/11/29 08:03:01;;;;;;;5.57;4.97;;;3.70;63.70;;;;;;5047172;28;20029;-76
2021/11/29 08:05:29;;;;;;;6.03;4.93;;;3.70;64.20;;;;;;5024574;28;20469;-74
2021/11/29 08:07:57;;;;;;;5.70;4.32;;;3.70;63.70;;;;;;5023457;28;20028;-74
2021/11/29 08:10:24;;;;;;;5.70;4.80;;;3.80;63.90;;;;;;5050262;28;20030;-74
2021/11/29 08:12:51;;;;;;;5.72;4.82;;;3.70;63.70;;;;;;5050055;28;20176;-74
2021/11/29 08:15:18;;;;;;;5.80;4.85;;;3.80;63.80;;;;;;5024488;28;20037;-74
2021/11/29 08:17:44;;;;;;;5.05;4.35;;;3.80;63.80;;;;;;5024709;28;20033;-74
2021/11/29 08:20:12;;;;;;;5.40;4.88;;;3.70;63.60;;;;;;5056307;28;20039;-76
2021/11/29 08:22:38;;;;;;;6.13;5.50;;;3.80;63.80;;;;;;5056336;28;20044;-75
2021/11/29 08:25:06;;;;;;;4.55;4.15;;;3.80;63.70;;;;;;5029347;28;20082;-74
2021/11/29 08:27:33;;;;;;;5.82;4.43;;;3.80;63.70;;;;;;5028862;28;20034;-76
2021/11/29 08:30:04;;;;;;;5.50;4.93;;;3.80;63.70;;;;;;5027898;28;20400;-74
2021/11/29 08:32:30;;;;;;;6.07;4.93;;;3.80;63.60;;;;;;5029093;28;20540;-73
2021/11/29 08:34:56;;;;;;;6.78;5.13;;;3.80;63.70;;;;;;5028348;28;20294;-76
2021/11/29 08:37:22;;;;;;;5.70;5.10;;;3.90;63.70;;;;;;5011091;28;20041;-75
2021/11/29 08:39:48;;;;;;;5.80;4.97;;;3.90;63.70;;;;;;5066896;28;20032;-73
2021/11/29 08:42:14;;;;;;;5.18;4.68;;;3.90;63.70;;;;;;5064266;28;20036;-81
2021/11/29 08:44:40;;;;;;;5.88;5.25;;;3.90;63.70;;;;;;5028780;28;20366;-75
2021/11/29 08:47:06;;;;;;;6.43;5.07;;;4.00;63.90;;;;;;5029127;28;20044;-73
2021/11/29 08:49:32;;;;;;;5.70;5.10;;;4.00;63.80;;;;;;5046144;28;20039;-73
2021/11/29 08:51:59;;;;;;;6.03;5.28;;;4.00;63.80;;;;;;5047391;28;20029;-79
2021/11/29 08:54:25;;;;;;;6.10;4.82;;;4.00;63.80;;;;;;5048189;28;20052;-75
2021/11/29 08:56:52;;;;;;;5.45;4.80;;;4.10;63.90;;;;;;5047862;28;20037;-74
2021/11/29 08:59:20;;;;;;;5.35;4.78;;;4.10;63.90;;;;;;5046980;28;20156;-76
2021/11/29 09:01:47;;;;;;;5.28;4.78;;;4.10;63.80;;;;;;5048442;28;20420;-75
2021/11/29 09:04:13;;;;;;;4.80;4.30;;;4.20;63.90;;;;;;5030366;28;20037;-75
2021/11/29 09:06:40;;;;;;;5.80;5.03;;;4.20;63.80;;;;;;5028361;28;20037;-74
2021/11/29 09:09:06;;;;;;;5.30;4.72;;;4.20;63.80;;;;;;5028750;28;20045;-76
2021/11/29 09:11:32;;;;;;;5.68;4.65;;;4.30;64.00;;;;;;5027184;28;20033;-73
2021/11/29 09:13:58;;;;;;;8.18;5.18;;;4.30;64.20;;;;;;5028348;28;20040;-73
2021/11/29 09:16:25;;;;;;;6.40;5.55;;;4.40;64.80;;;;;;5028526;28;20088;-76
2021/11/29 09:18:51;;;;;;;6.32;5.72;;;4.50;65.20;;;;;;5039868;28;20036;-74
2021/11/29 09:21:20;;;;;;;6.25;5.03;;;4.60;65.50;;;;;;5046817;28;20476;-76
2021/11/29 09:23:46;;;;;;;5.43;4.85;;;4.70;65.70;;;;;;5048062;28;20366;-76
2021/11/29 09:26:13;;;;;;;5.15;4.65;;;4.70;65.70;;;;;;5048535;28;20060;-76
2021/11/29 09:28:40;;;;;;;5.15;4.53;;;4.80;65.90;;;;;;5047772;28;20037;-77
2021/11/29 09:31:07;;;;;;;7.18;4.70;;;4.80;65.80;;;;;;5047928;28;20039;-76
2021/11/29 09:33:34;;;;;;;4.63;4.20;;;4.80;65.70;;;;;;5038654;28;20030;-79
2021/11/29 09:36:00;;;;;;;4.90;4.40;;;4.80;65.70;;;;;;5054267;28;20033;-75
2021/11/29 09:38:27;;;;;;;5.43;4.20;;;4.80;65.70;;;;;;5045845;28;20037;-75
2021/11/29 09:40:53;;;;;;;4.72;4.25;;;4.90;65.80;;;;;;5048174;28;20090;-82
2021/11/29 09:43:19;;;;;;;5.22;4.70;;;4.90;66.30;;;;;;5047833;28;20025;-80
2021/11/29 09:45:48;;;;;;;4.82;4.35;;;4.90;65.70;;;;;;5046231;28;20585;-76
2021/11/29 09:48:15;;;;;;;4.93;4.40;;;4.90;65.70;;;;;;5046813;28;20098;-74
2021/11/29 09:50:46;;;;;;;4.93;4.43;;;5.00;65.80;;;;;;5048205;28;20082;-86
2021/11/29 09:53:15;;;;;;;4.35;3.58;;;5.00;65.70;;;;;;5047926;28;20059;-82
2021/11/29 09:55:42;;;;;;;4.22;3.83;;;5.10;65.80;;;;;;5048467;28;20040;-80
2021/11/29 09:58:08;;;;;;;4.72;4.18;;;5.10;65.80;;;;;;5048059;28;20040;-82
2021/11/29 10:00:38;;;;;;;4.28;3.78;;;5.20;65.90;;;;;;5029371;28;20029;-86
2021/11/29 10:03:07;;;;;;;4.28;3.88;;;5.30;65.90;;;;;;5048633;28;20052;-83
2021/11/29 10:05:36;;;;;;;5.15;4.13;;;5.40;66.00;;;;;;5047194;28;20033;-78
2021/11/29 10:08:21;;;;;;;4.93;4.43;;;5.40;65.80;;;;;;5046057;28;20036;-78
2021/11/29 10:10:57;;;;;;;5.10;3.67;;;5.50;65.90;;;;;;5046226;28;20037;-80
2021/11/29 10:13:25;;;;;;;5.43;4.18;;;5.60;66.00;;;;;;5047905;28;20029;-85
2021/11/29 10:15:52;;;;;;;5.47;4.95;;;5.60;65.80;;;;;;5047706;28;20393;-85
2021/11/29 10:18:26;;;;;;;4.70;3.75;;;5.70;65.90;;;;;;5047425;28;20029;-87
2021/11/29 10:21:00;;;;;;;4.70;4.20;;;5.70;65.80;;;;;;5046057;28;20033;-79
2021/11/29 10:23:48;;;;;;;4.72;3.90;;;5.80;65.90;;;;;;5046952;28;20476;-79
2021/11/29 10:26:17;;;;;;;4.38;3.97;;;5.90;66.00;;;;;;5047962;28;20139;-80
2021/11/29 10:28:48;;;;;;;4.82;4.32;;;5.90;65.90;;;;;;5045206;28;20032;-77
2021/11/29 10:31:19;;;;;;;3.65;3.35;;;6.00;66.00;;;;;;5045793;28;20036;-83
2021/11/29 10:33:54;;;;;;;4.25;3.85;;;6.00;65.90;;;;;;5046119;28;20460;-83
2021/11/29 10:36:22;;;;;;;4.03;3.63;;;6.10;65.90;;;;;;5044587;28;20040;-84
2021/11/29 10:38:52;;;;;;;3.70;3.28;;;6.10;65.80;;;;;;5046732;28;20465;-87
2021/11/29 10:41:25;;;;;;;3.70;3.30;;;6.20;65.90;;;;;;5047306;28;20040;-86
2021/11/29 10:43:52;;;;;;;4.60;3.70;;;6.20;65.80;;;;;;5046279;28;20074;-78
2021/11/29 10:46:21;;;;;;;4.00;3.65;;;6.30;65.90;;;;;;5045255;28;20033;-78
2021/11/29 10:48:48;;;;;;;4.05;3.65;;;6.30;65.80;;;;;;5046315;28;20037;-83
2021/11/29 10:51:16;;;;;;;3.65;3.35;;;6.40;65.80;;;;;;5046340;28;20044;-77
2021/11/29 10:53:50;;;;;;;3.75;3.45;;;6.50;65.90;;;;;;5044516;28;20036;-81
2021/11/29 10:56:17;;;;;;;3.55;3.25;;;6.50;65.80;;;;;;5032778;28;20114;-78
2021/11/29 10:58:46;;;;;;;3.47;3.15;;;6.60;65.80;;;;;;5045214;28;20029;-85
2021/11/29 11:01:16;;;;;;;4.90;3.90;;;6.60;65.70;;;;;;5046903;28;20093;-77
2021/11/29 11:03:56;;;;;;;3.88;3.30;;;6.70;65.80;;;;;;5045572;28;20096;-81
2021/11/29 11:06:37;;;;;;;3.20;2.90;;;6.80;65.80;;;;;;5046901;28;20116;-77
2021/11/29 11:09:30;;;;;;;3.90;3.60;;;6.80;65.70;;;;;;5045037;28;20029;-81
2021/11/29 11:11:59;;;;;;;3.65;3.35;;;6.90;65.70;;;;;;5042772;28;20400;-85
2021/11/29 11:14:35;;;;;;;4.57;3.75;;;6.90;65.60;;;;;;5046746;28;20025;-85
2021/11/29 11:17:05;;;;;;;3.55;3.25;;;6.90;65.50;;;;;;5045594;28;20041;-80
2021/11/29 11:19:36;;;;;;;4.13;3.58;;;7.00;65.60;;;;;;5045107;28;20037;-81
2021/11/29 11:22:13;;;;;;;3.45;3.15;;;7.10;65.70;;;;;;5046365;28;20489;-77
2021/11/29 11:24:42;;;;;;;3.10;2.83;;;7.10;65.50;;;;;;5045771;28;20120;-75
2021/11/29 11:27:08;;;;;;;2.83;2.40;;;7.20;65.60;;;;;;5045732;28;20024;-82
2021/11/29 11:29:46;;;;;;;3.10;2.80;;;7.20;65.40;;;;;;5045677;28;20052;-81
2021/11/29 11:32:37;;;;;;;3.35;3.00;;;7.30;65.50;;;;;;5046088;28;20049;-81
2021/11/29 11:35:05;;;;;;;3.28;2.80;;;7.30;65.30;;;;;;5038351;28;20438;-78
2021/11/29 11:37:43;;;;;;;2.72;2.25;;;7.40;65.40;;;;;;5041665;28;20558;-81
2021/11/29 11:40:22;;;;;;;3.05;2.70;;;7.50;65.40;;;;;;5026767;28;20029;-76
2021/11/29 11:42:49;;;;;;;2.60;2.40;;;7.50;65.30;;;;;;5031844;28;20036;-78
2021/11/29 11:45:21;;;;;;;3.35;2.72;;;7.60;65.30;;;;;;5043877;28;20029;-77
2021/11/29 11:47:51;;;;;;;5.25;2.90;;;7.60;65.10;;;;;;5044918;28;20033;-77
2021/11/29 11:50:21;;;;;;;3.42;3.10;;;7.70;65.10;;;;;;5044324;28;20056;-83
2021/11/29 11:52:47;;;;;;;2.85;2.65;;;7.70;65.00;;;;;;5028143;28;20087;-75
2021/11/29 11:55:16;;;;;;;3.30;2.80;;;7.80;65.10;;;;;;5046146;28;20029;-77
2021/11/29 11:57:43;;;;;;;3.42;3.13;;;7.80;65.00;;;;;;5046690;28;20376;-78
2021/11/29 12:00:35;;;;;;;3.42;2.70;;;7.80;64.90;;;;;;5047731;28;20078;-78
2021/11/29 12:03:11;;;;;;;3.53;2.38;;;7.90;65.30;;;;;;5049065;28;20032;-77
2021/11/29 12:05:47;;;;;;;2.63;2.42;;;8.00;65.80;;;;;;5050364;28;20029;-87
2021/11/29 12:08:32;;;;;;;4.07;2.90;;;8.10;66.00;;;;;;5050255;28;20044;-84
2021/11/29 12:10:58;;;;;;;2.53;2.00;;;8.20;66.10;;;;;;5032352;28;20033;-83
2021/11/29 12:13:25;;;;;;;4.75;2.85;;;8.30;66.20;;;;;;5049639;28;20032;-76
2021/11/29 12:15:56;;;;;;;4.40;3.10;;;8.40;66.20;;;;;;5049451;28;20492;-78
2021/11/29 12:18:40;;;;;;;3.83;2.85;;;8.50;66.10;;;;;;5047824;28;20036;-78
2021/11/29 12:21:22;;;;;;;3.97;2.95;;;8.50;65.90;;;;;;5047878;28;20025;-76
2021/11/29 12:23:59;;;;;;;3.20;2.30;;;8.70;66.00;;;;;;5048916;28;20040;-75
2021/11/29 12:26:43;;;;;;;3.05;2.53;;;8.70;65.90;;;;;;5049110;28;20036;-75
2021/11/29 12:29:22;;;;;;;5.07;2.67;;;8.80;65.80;;;;;;5048828;28;20492;-76
2021/11/29 12:32:03;;;;;;;2.97;2.67;;;8.90;65.80;;;;;;5049438;28;20053;-74
2021/11/29 12:34:47;;;;;;;2.95;2.40;;;8.90;65.60;;;;;;5048866;28;20484;-76
2021/11/29 12:37:17;;;;;;;3.10;2.70;;;8.90;65.40;;;;;;5047674;28;20041;-78
2021/11/29 12:39:47;;;;;;;3.15;2.70;;;8.90;65.30;;;;;;5043344;28;20037;-77
2021/11/29 12:42:19;;;;;;;3.50;2.60;;;9.00;65.30;;;;;;5047510;28;20104;-83
2021/11/29 12:44:46;;;;;;;3.80;2.88;;;8.90;65.00;;;;;;5050238;28;20036;-83
2021/11/29 12:47:28;;;;;;;3.50;2.95;;;9.00;65.20;;;;;;5048052;28;20037;-74
2021/11/29 12:49:58;;;;;;;3.00;2.70;;;9.00;65.00;;;;;;5049030;28;20112;-78
2021/11/29 12:52:27;;;;;;;3.47;2.72;;;9.00;65.00;;;;;;5049307;28;20029;-82
2021/11/29 12:54:55;;;;;;;4.03;2.50;;;8.90;65.30;;;;;;5049148;28;20037;-80
2021/11/29 12:57:36;;;;;;;3.33;2.85;;;8.90;64.70;;;;;;5049549;28;20032;-82
2021/11/29 13:00:07;;;;;;;3.70;2.92;;;8.90;64.60;;;;;;5048759;28;20221;-81
2021/11/29 13:02:44;;;;;;;3.33;2.55;;;8.90;64.60;;;;;;5049906;28;20444;-75